createdAt,value
2019-03-05T00:01:20.869Z,5.22
2019-03-05T00:03:58.241Z,5.33
2019-03-05T00:06:36.037Z,5.58
2019-03-05T00:09:20.929Z,5.65
2019-03-05T00:11:58.221Z,5.20
2019-03-05T00:14:35.524Z,4.80
2019-03-05T00:17:12.765Z,5.17
2019-03-05T00:19:50.021Z,4.92
2019-03-05T00:22:27.540Z,5.70
2019-03-05T00:25:10.903Z,4.40
2019-03-05T00:27:59.120Z,5.33
2019-03-05T00:31:13.402Z,5.28
2019-03-05T00:34:08.557Z,4.85
2019-03-05T00:37:09.939Z,4.70
2019-03-05T00:40:10.644Z,4.22
2019-03-05T00:43:03.470Z,4.00
2019-03-05T00:46:25.596Z,3.90
2019-03-05T00:52:48.546Z,3.05
2019-03-05T00:55:49.912Z,3.37
2019-03-05T00:58:58.318Z,3.20
2019-03-05T01:02:06.055Z,2.90
2019-03-05T01:05:10.513Z,2.92
2019-03-05T01:07:47.907Z,2.33
2019-03-05T01:10:28.352Z,2.92
2019-03-05T01:13:05.790Z,2.62
2019-03-05T01:15:43.223Z,2.52
2019-03-05T01:18:22.559Z,2.83
2019-03-05T01:21:01.030Z,3.20
2019-03-05T01:23:38.784Z,2.83
2019-03-05T01:26:16.159Z,2.95
2019-03-05T01:28:54.672Z,2.77
2019-03-05T01:31:42.162Z,3.22
2019-03-05T01:34:26.502Z,3.20
2019-03-05T01:37:04.657Z,2.77
2019-03-05T01:40:00.693Z,3.25
2019-03-05T01:42:38.193Z,2.67
2019-03-05T01:45:16.301Z,2.75
2019-03-05T01:47:53.740Z,3.10
2019-03-05T01:50:30.818Z,4.10
2019-03-05T01:53:09.233Z,3.70
2019-03-05T01:55:46.573Z,4.75
2019-03-05T01:58:24.138Z,3.80
2019-03-05T02:01:16.959Z,3.33
2019-03-05T02:03:54.363Z,3.80
2019-03-05T02:06:33.438Z,4.03
2019-03-05T02:09:14.401Z,4.17
2019-03-05T02:11:51.733Z,4.25
2019-03-05T02:14:33.065Z,3.47
2019-03-05T02:19:48.314Z,4.20
2019-03-05T02:23:06.604Z,4.20
2019-03-05T02:26:24.917Z,4.03
2019-03-05T02:29:24.553Z,4.25
2019-03-05T02:32:44.121Z,3.90
2019-03-05T02:35:33.479Z,4.15
2019-03-05T02:38:48.424Z,4.35
2019-03-05T02:41:58.230Z,5.12
2019-03-05T02:45:02.374Z,3.55
2019-03-05T02:48:15.108Z,3.87
2019-03-05T02:51:40.665Z,3.87
2019-03-05T02:55:17.933Z,3.52
2019-03-05T02:57:53.658Z,3.72
2019-03-05T03:00:53.338Z,4.00
2019-03-05T03:03:40.689Z,3.55
2019-03-05T03:06:21.202Z,3.60
2019-03-05T03:09:45.448Z,4.22
2019-03-05T03:12:22.672Z,3.58
2019-03-05T03:15:00.146Z,3.87
2019-03-05T03:17:37.859Z,3.77
2019-03-05T03:20:23.041Z,4.15
2019-03-05T03:23:00.410Z,4.00
2019-03-05T03:25:38.181Z,3.70
2019-03-05T03:28:16.569Z,3.62
2019-03-05T03:30:54.742Z,4.22
2019-03-05T03:33:32.470Z,4.17
2019-03-05T03:36:10.501Z,4.10
2019-03-05T03:38:47.813Z,4.37
2019-03-05T03:41:25.132Z,3.98
2019-03-05T03:44:02.683Z,4.50
2019-03-05T03:46:40.149Z,3.42
2019-03-05T03:49:17.459Z,3.70
2019-03-05T03:51:54.809Z,4.37
2019-03-05T03:54:32.504Z,3.75
2019-03-05T03:57:09.713Z,3.40
2019-03-05T03:59:47.317Z,3.72
2019-03-05T04:02:24.566Z,4.00
2019-03-05T04:05:02.278Z,3.65
2019-03-05T04:07:39.969Z,4.00
2019-03-05T04:10:17.785Z,3.72
2019-03-05T04:12:55.068Z,3.92
2019-03-05T04:15:33.052Z,4.08
2019-03-05T04:18:10.762Z,4.50
2019-03-05T04:20:53.433Z,4.33
2019-03-05T04:23:30.838Z,4.33
2019-03-05T04:26:08.254Z,4.55
2019-03-05T04:28:50.004Z,4.80
2019-03-05T04:31:27.496Z,5.62
2019-03-05T04:34:05.727Z,5.00
2019-03-05T04:36:43.108Z,4.87
2019-03-05T04:39:21.049Z,5.80
2019-03-05T04:41:58.356Z,5.50
2019-03-05T04:44:46.519Z,5.45
2019-03-05T04:47:23.620Z,5.55
2019-03-05T04:50:19.986Z,5.80
2019-03-05T04:52:57.222Z,5.65
2019-03-05T04:55:34.738Z,6.87
2019-03-05T04:58:12.112Z,5.85
2019-03-05T05:00:49.786Z,6.60
2019-03-05T05:03:27.701Z,6.70
2019-03-05T05:06:05.009Z,6.25
2019-03-05T05:08:43.919Z,6.83
2019-03-05T05:11:21.664Z,6.85
2019-03-05T05:14:00.028Z,6.33
2019-03-05T05:16:37.825Z,7.25
2019-03-05T05:19:15.876Z,6.97
2019-03-05T05:21:53.144Z,7.62
2019-03-05T05:24:30.507Z,7.58
2019-03-05T05:27:07.724Z,8.00
2019-03-05T05:29:46.378Z,8.10
2019-03-05T05:32:35.408Z,7.35
2019-03-05T05:35:13.092Z,8.38
2019-03-05T05:37:52.169Z,7.47
2019-03-05T05:40:36.076Z,8.20
2019-03-05T05:43:16.087Z,9.38
2019-03-05T05:46:04.567Z,7.60
2019-03-05T05:48:43.888Z,7.05
2019-03-05T05:51:21.511Z,8.80
2019-03-05T05:53:59.255Z,8.30
2019-03-05T05:56:36.974Z,7.28
2019-03-05T05:59:15.841Z,8.25
2019-03-05T06:02:00.243Z,8.68
2019-03-05T06:04:37.952Z,7.83
2019-03-05T06:07:15.793Z,9.13
2019-03-05T06:09:55.125Z,8.33
2019-03-05T06:12:32.582Z,8.68
2019-03-05T06:15:10.911Z,8.48
2019-03-05T06:17:48.631Z,9.03
2019-03-05T06:20:26.108Z,8.53
2019-03-05T06:23:19.206Z,9.58
2019-03-05T06:25:56.678Z,9.63
2019-03-05T06:28:34.525Z,9.45
2019-03-05T06:31:11.746Z,9.00
2019-03-05T06:33:49.174Z,9.08
2019-03-05T06:36:26.610Z,9.43
2019-03-05T06:39:04.744Z,9.38
2019-03-05T06:41:42.354Z,9.03
2019-03-05T06:44:19.457Z,8.90
2019-03-05T06:46:57.218Z,9.38
2019-03-05T06:49:34.970Z,8.35
2019-03-05T06:52:12.268Z,9.33
2019-03-05T06:54:49.873Z,8.58
2019-03-05T06:57:27.290Z,9.40
2019-03-05T07:00:08.044Z,9.10
2019-03-05T07:02:45.154Z,8.38
2019-03-05T07:05:45.720Z,8.53
2019-03-05T07:08:23.383Z,10.53
2019-03-05T07:11:26.675Z,8.23
2019-03-05T07:14:05.327Z,8.95
2019-03-05T07:17:06.557Z,9.35
2019-03-05T07:20:22.125Z,9.03
2019-03-05T07:23:43.267Z,7.95
2019-03-05T07:26:20.666Z,8.75
2019-03-05T07:28:59.032Z,8.60
2019-03-05T07:31:36.883Z,8.13
2019-03-05T07:34:21.655Z,8.45
2019-03-05T07:36:59.255Z,7.53
2019-03-05T07:39:36.651Z,8.65
2019-03-05T07:42:14.063Z,7.97
2019-03-05T07:44:53.256Z,8.90
2019-03-05T07:47:31.045Z,6.65
2019-03-05T07:50:09.053Z,6.47
2019-03-05T07:52:46.409Z,6.35
2019-03-05T07:55:24.155Z,7.62
2019-03-05T07:58:01.979Z,7.60
2019-03-05T08:00:40.344Z,7.65
2019-03-05T08:03:17.635Z,7.78
2019-03-05T08:05:55.224Z,7.12
2019-03-05T08:09:28.106Z,7.33
2019-03-05T08:12:36.996Z,7.58
2019-03-05T08:15:46.554Z,6.33
2019-03-05T08:18:25.288Z,7.00
2019-03-05T08:21:03.049Z,7.62
2019-03-05T08:23:40.566Z,6.42
2019-03-05T08:26:18.306Z,7.30
2019-03-05T08:28:56.800Z,7.00
2019-03-05T08:31:34.208Z,6.40
2019-03-05T08:34:12.098Z,6.42
2019-03-05T08:36:49.369Z,5.25
2019-03-05T08:39:26.619Z,6.87
2019-03-05T08:42:04.533Z,6.53
2019-03-05T08:44:50.015Z,6.45
2019-03-05T08:47:21.851Z,6.50
2019-03-05T08:49:59.146Z,7.20
2019-03-05T08:52:36.595Z,6.37
2019-03-05T08:55:13.913Z,6.17
2019-03-05T08:57:51.374Z,5.17
2019-03-05T09:00:28.703Z,6.58
2019-03-05T09:03:06.477Z,6.60
2019-03-05T09:05:45.396Z,6.50
2019-03-05T09:08:22.895Z,7.28
2019-03-05T09:11:01.615Z,6.70
2019-03-05T09:13:39.089Z,7.12
2019-03-05T09:16:16.497Z,7.03
2019-03-05T09:18:54.225Z,7.00
2019-03-05T09:21:31.903Z,6.85
2019-03-05T09:24:20.850Z,6.10
2019-03-05T09:26:58.251Z,5.78
2019-03-05T09:29:36.057Z,5.55
2019-03-05T09:32:13.413Z,6.85
2019-03-05T09:34:50.867Z,6.10
2019-03-05T09:37:28.953Z,6.45
2019-03-05T09:40:11.611Z,6.10
2019-03-05T09:42:50.131Z,5.47
2019-03-05T09:45:28.367Z,6.50
2019-03-05T09:48:07.706Z,5.87
2019-03-05T09:50:44.978Z,6.05
2019-03-05T09:53:22.305Z,5.53
2019-03-05T09:55:59.848Z,6.22
2019-03-05T09:58:39.203Z,6.35
2019-03-05T10:01:16.760Z,5.22
2019-03-05T10:03:54.904Z,5.53
2019-03-05T10:06:33.142Z,4.70
2019-03-05T10:09:10.900Z,5.92
2019-03-05T10:11:56.385Z,5.58
2019-03-05T10:14:28.118Z,5.87
2019-03-05T10:17:05.657Z,6.45
2019-03-05T10:19:44.540Z,4.83
2019-03-05T10:22:21.712Z,5.00
2019-03-05T10:25:05.954Z,4.62
2019-03-05T10:27:39.147Z,5.20
2019-03-05T10:30:24.823Z,5.15
2019-03-05T10:33:01.215Z,4.55
2019-03-05T10:35:39.063Z,4.12
2019-03-05T10:38:16.564Z,4.10
2019-03-05T10:40:55.689Z,4.28
2019-03-05T10:43:33.187Z,4.95
2019-03-05T10:46:11.065Z,4.25
2019-03-05T10:48:48.497Z,4.28
2019-03-05T10:51:26.208Z,3.33
2019-03-05T10:54:05.180Z,3.92
2019-03-05T10:56:42.717Z,4.42
2019-03-05T10:59:20.309Z,4.15
2019-03-05T11:01:58.108Z,3.87
2019-03-05T11:04:45.449Z,4.47
2019-03-05T11:07:14.962Z,4.22
2019-03-05T11:09:53.889Z,4.03
2019-03-05T11:12:32.014Z,3.55
2019-03-05T11:15:15.529Z,3.98
2019-03-05T11:17:53.159Z,4.17
2019-03-05T11:20:30.711Z,3.58
2019-03-05T11:23:11.441Z,3.65
2019-03-05T11:25:48.198Z,3.77
2019-03-05T11:28:26.157Z,4.15
2019-03-05T11:31:03.714Z,3.72
2019-03-05T11:33:41.956Z,3.95
2019-03-05T11:36:31.218Z,3.58
2019-03-05T11:39:11.930Z,4.12
2019-03-05T11:41:49.178Z,3.65
2019-03-05T11:44:26.648Z,3.95
2019-03-05T11:47:04.327Z,3.90
2019-03-05T11:49:41.714Z,4.00
2019-03-05T11:52:19.540Z,3.45
2019-03-05T11:54:58.126Z,3.62
2019-03-05T11:57:35.782Z,3.98
2019-03-05T12:00:17.394Z,3.37
2019-03-05T12:02:54.699Z,3.65
2019-03-05T12:05:32.139Z,3.30
2019-03-05T12:08:09.570Z,4.10
2019-03-05T12:10:47.065Z,3.67
2019-03-05T12:13:24.722Z,3.75
2019-03-05T12:16:11.233Z,3.75
2019-03-05T12:18:49.755Z,5.30
2019-03-05T12:21:27.358Z,3.35
2019-03-05T12:24:05.814Z,3.55
2019-03-05T12:26:43.253Z,3.90
2019-03-05T12:29:20.945Z,3.30
2019-03-05T12:31:58.751Z,3.70
2019-03-05T12:34:36.241Z,3.58
2019-03-05T12:37:14.190Z,3.90
2019-03-05T12:39:51.451Z,3.20
2019-03-05T12:42:28.965Z,3.65
2019-03-05T12:45:06.853Z,3.77
2019-03-05T12:47:44.427Z,3.40
2019-03-05T12:50:22.101Z,4.17
2019-03-05T12:53:10.647Z,3.67
2019-03-05T12:55:48.091Z,3.17
2019-03-05T12:58:25.559Z,4.35
2019-03-05T13:01:03.376Z,3.47
2019-03-05T13:03:41.247Z,3.87
2019-03-05T13:06:19.543Z,3.75
2019-03-05T13:08:57.015Z,3.12
2019-03-05T13:11:35.207Z,3.77
2019-03-05T13:14:12.680Z,3.52
2019-03-05T13:16:50.423Z,4.17
2019-03-05T13:19:27.709Z,4.15
2019-03-05T13:22:05.140Z,3.67
2019-03-05T13:24:42.431Z,4.50
2019-03-05T13:27:22.734Z,4.10
2019-03-05T13:29:59.587Z,4.75
2019-03-05T13:32:37.216Z,4.95
2019-03-05T13:35:19.472Z,5.08
2019-03-05T13:37:58.709Z,5.60
2019-03-05T13:40:38.573Z,4.80
2019-03-05T13:43:16.330Z,5.62
2019-03-05T13:45:56.417Z,4.22
2019-03-05T13:49:18.002Z,4.97
2019-03-05T13:52:12.406Z,4.80
2019-03-05T13:55:15.430Z,5.17
2019-03-05T13:58:33.216Z,5.17
2019-03-05T14:01:11.821Z,4.67
2019-03-05T14:04:00.515Z,5.10
2019-03-05T14:07:22.031Z,5.40
2019-03-05T14:09:59.843Z,5.25
2019-03-05T14:12:38.016Z,3.75
2019-03-05T14:15:15.612Z,4.15
2019-03-05T14:17:53.202Z,5.58
2019-03-05T14:20:32.097Z,4.03
2019-03-05T14:23:09.266Z,4.50
2019-03-05T14:25:47.044Z,5.22
2019-03-05T14:28:24.537Z,5.28
2019-03-05T14:31:01.863Z,6.10
2019-03-05T14:33:39.248Z,5.12
2019-03-05T14:36:17.989Z,5.45
2019-03-05T14:38:55.309Z,5.47
2019-03-05T14:41:32.710Z,4.87
2019-03-05T14:44:13.330Z,5.58
2019-03-05T14:46:55.285Z,5.72
2019-03-05T14:49:34.215Z,6.00
2019-03-05T14:52:11.648Z,6.60
2019-03-05T14:54:49.378Z,6.12
2019-03-05T14:57:27.108Z,5.67
2019-03-05T15:00:06.070Z,5.70
2019-03-05T15:02:46.055Z,6.30
2019-03-05T15:05:23.366Z,5.65
2019-03-05T15:08:01.039Z,6.45
2019-03-05T15:10:38.892Z,5.72
2019-03-05T15:13:19.899Z,6.15
2019-03-05T15:15:55.669Z,5.87
2019-03-05T15:18:34.106Z,6.80
2019-03-05T15:21:11.644Z,6.08
2019-03-05T15:23:49.427Z,5.80
2019-03-05T15:26:26.662Z,7.50
2019-03-05T15:29:03.910Z,6.22
2019-03-05T15:31:42.069Z,6.80
2019-03-05T15:34:21.585Z,6.78
2019-03-05T15:36:59.498Z,7.53
2019-03-05T15:39:36.880Z,7.92
2019-03-05T15:42:13.998Z,7.05
2019-03-05T15:44:51.772Z,7.12
2019-03-05T15:47:29.367Z,7.97
2019-03-05T15:50:08.213Z,7.75
2019-03-05T15:52:45.814Z,8.70
2019-03-05T15:55:25.392Z,7.80
2019-03-05T15:58:04.513Z,5.00
2019-03-05T16:00:42.567Z,3.55
2019-03-05T16:03:19.862Z,3.15
2019-03-05T16:05:57.865Z,3.00
2019-03-05T16:08:37.039Z,2.52
2019-03-05T16:11:14.674Z,2.20
2019-03-05T16:13:56.021Z,2.45
2019-03-05T16:16:31.765Z,3.00
2019-03-05T16:19:12.370Z,2.27
2019-03-05T16:21:48.191Z,2.20
2019-03-05T16:24:25.679Z,2.35
2019-03-05T16:27:06.575Z,2.62
2019-03-05T16:29:43.999Z,2.58
2019-03-05T16:32:39.526Z,2.12
2019-03-05T16:35:42.013Z,2.35
2019-03-05T16:38:42.636Z,3.30
2019-03-05T16:41:42.050Z,2.12
2019-03-05T16:44:48.633Z,2.72
2019-03-05T16:47:53.773Z,2.98
2019-03-05T16:50:59.475Z,3.77
2019-03-05T16:54:04.877Z,4.28
2019-03-05T16:56:49.022Z,3.22
2019-03-05T16:59:42.670Z,3.22
2019-03-05T17:02:29.073Z,3.75
2019-03-05T17:05:26.294Z,4.90
2019-03-05T17:08:21.695Z,5.08
2019-03-05T17:11:22.795Z,3.55
2019-03-05T17:14:00.250Z,3.92
2019-03-05T17:16:39.236Z,4.12
2019-03-05T17:19:16.706Z,3.52
2019-03-05T17:21:54.036Z,4.65
2019-03-05T17:24:31.966Z,4.47
2019-03-05T17:27:09.594Z,4.08
2019-03-05T17:30:02.434Z,4.42
2019-03-05T17:32:40.217Z,3.80
2019-03-05T17:35:19.291Z,3.80
2019-03-05T17:37:57.554Z,3.80
2019-03-05T17:40:36.032Z,4.45
2019-03-05T17:43:15.311Z,3.92
2019-03-05T17:45:53.057Z,5.03
2019-03-05T17:48:38.447Z,4.62
2019-03-05T17:51:16.020Z,5.97
2019-03-05T17:53:54.288Z,4.60
2019-03-05T17:56:31.481Z,4.75
2019-03-05T17:59:08.829Z,4.53
2019-03-05T18:01:46.416Z,5.05
2019-03-05T18:04:23.861Z,5.95
2019-03-05T18:07:01.322Z,6.00
2019-03-05T18:09:40.217Z,5.97
2019-03-05T18:12:18.317Z,7.17
2019-03-05T18:14:55.972Z,7.58
2019-03-05T18:17:33.597Z,7.35
2019-03-05T18:20:12.342Z,7.62
2019-03-05T18:22:49.786Z,8.00
2019-03-05T18:25:27.177Z,8.85
2019-03-05T18:28:04.762Z,9.75
2019-03-05T18:30:42.128Z,10.68
2019-03-05T18:33:19.424Z,13.08
2019-03-05T18:35:56.920Z,13.32
2019-03-05T18:38:34.368Z,14.80
2019-03-05T18:41:11.546Z,16.02
2019-03-05T18:43:49.116Z,20.00
2019-03-05T18:46:26.384Z,20.27
2019-03-05T18:49:04.040Z,20.17
2019-03-05T18:51:41.631Z,19.90
2019-03-05T18:54:19.041Z,17.40
2019-03-05T18:56:56.399Z,17.05
2019-03-05T18:59:33.858Z,14.15
2019-03-05T19:02:11.203Z,13.13
2019-03-05T19:04:49.011Z,14.13
2019-03-05T19:07:38.256Z,13.98
2019-03-05T19:10:17.274Z,13.58
2019-03-05T19:12:54.936Z,14.80
2019-03-05T19:15:32.462Z,15.90
2019-03-05T19:18:10.140Z,19.10
2019-03-05T19:20:48.536Z,17.05
2019-03-05T19:23:25.877Z,16.95
2019-03-05T19:26:04.868Z,18.60
2019-03-05T19:28:43.380Z,19.10
2019-03-05T19:31:20.815Z,18.45
2019-03-05T19:33:58.518Z,19.12
2019-03-05T19:36:35.987Z,18.45
2019-03-05T19:39:14.996Z,20.77
2019-03-05T19:41:55.997Z,19.57
2019-03-05T19:44:31.638Z,20.48
2019-03-05T19:47:09.087Z,21.75
2019-03-05T19:49:46.971Z,19.77
2019-03-05T19:52:24.366Z,20.65
2019-03-05T19:55:02.762Z,21.45
2019-03-05T19:57:40.703Z,23.07
2019-03-05T20:00:22.459Z,21.02
2019-03-05T20:03:00.141Z,17.87
2019-03-05T20:05:37.720Z,15.88
2019-03-05T20:08:15.330Z,16.20
2019-03-05T20:10:53.027Z,16.00
2019-03-05T20:13:30.679Z,20.72
2019-03-05T20:16:08.849Z,16.30
2019-03-05T20:18:46.653Z,14.47
2019-03-05T20:21:24.161Z,16.00
2019-03-05T20:24:03.448Z,17.23
2019-03-05T20:26:40.592Z,19.48
2019-03-05T20:29:18.290Z,22.17
2019-03-05T20:31:55.779Z,24.47
2019-03-05T20:34:33.368Z,26.40
2019-03-05T20:37:10.844Z,24.77
2019-03-05T20:39:48.440Z,22.58
2019-03-05T20:42:26.128Z,21.30
2019-03-05T20:45:04.656Z,19.42
2019-03-05T20:47:42.911Z,18.42
2019-03-05T20:50:20.271Z,17.87
2019-03-05T20:52:58.274Z,17.95
2019-03-05T20:55:36.123Z,19.02
2019-03-05T20:58:15.004Z,17.10
2019-03-05T21:00:53.082Z,16.27
2019-03-05T21:03:31.050Z,17.52
2019-03-05T21:06:08.684Z,16.52
2019-03-05T21:08:47.580Z,17.42
2019-03-05T21:11:24.890Z,17.02
2019-03-05T21:14:02.381Z,16.42
2019-03-05T21:16:40.342Z,14.90
2019-03-05T21:19:18.086Z,13.93
2019-03-05T21:21:55.852Z,14.05
2019-03-05T21:24:33.423Z,12.45
2019-03-05T21:27:10.765Z,13.95
2019-03-05T21:29:49.107Z,14.43
2019-03-05T21:32:26.498Z,14.90
2019-03-05T21:35:03.963Z,13.68
2019-03-05T21:37:42.180Z,13.78
2019-03-05T21:40:21.568Z,15.30
2019-03-05T21:43:00.432Z,15.43
2019-03-05T21:45:38.347Z,15.45
2019-03-05T21:48:18.287Z,15.53
2019-03-05T21:50:56.699Z,16.55
2019-03-05T21:53:34.153Z,16.75
2019-03-05T21:56:11.374Z,16.82
2019-03-05T21:58:49.165Z,15.18
2019-03-05T22:01:26.481Z,14.60
2019-03-05T22:04:03.998Z,13.80
2019-03-05T22:06:42.416Z,13.05
2019-03-05T22:09:20.087Z,13.93
2019-03-05T22:11:57.814Z,15.48
2019-03-05T22:14:35.563Z,13.18
2019-03-05T22:17:13.206Z,13.83
2019-03-05T22:19:50.714Z,13.15
2019-03-05T22:22:28.408Z,14.00
2019-03-05T22:25:06.734Z,15.72
2019-03-05T22:27:44.254Z,16.87
2019-03-05T22:30:23.755Z,16.20
2019-03-05T22:33:01.267Z,13.75
2019-03-05T22:35:38.764Z,12.80
2019-03-05T22:38:15.897Z,12.68
2019-03-05T22:40:54.882Z,15.25
2019-03-05T22:43:32.454Z,14.25
2019-03-05T22:46:10.145Z,15.75
2019-03-05T22:48:47.878Z,14.75
2019-03-05T22:51:25.434Z,15.40
2019-03-05T22:54:03.060Z,15.98
2019-03-05T22:56:40.627Z,17.65
2019-03-05T22:59:18.357Z,17.57
2019-03-05T23:01:55.687Z,17.05
2019-03-05T23:04:37.238Z,16.85
2019-03-05T23:07:15.471Z,14.53
2019-03-05T23:09:53.676Z,14.93
2019-03-05T23:12:31.456Z,15.23
2019-03-05T23:15:10.279Z,13.80
2019-03-05T23:17:48.547Z,14.40
2019-03-05T23:20:25.769Z,13.00
2019-03-05T23:23:04.656Z,12.98
2019-03-05T23:25:42.620Z,14.63
2019-03-05T23:28:20.417Z,15.58
2019-03-05T23:30:58.183Z,14.78
2019-03-05T23:33:36.281Z,15.95
2019-03-05T23:36:14.386Z,15.45
2019-03-05T23:38:52.171Z,13.80
2019-03-05T23:41:29.493Z,14.90
2019-03-05T23:44:06.907Z,13.28
2019-03-05T23:46:44.541Z,12.82
2019-03-05T23:49:22.929Z,12.40
2019-03-05T23:52:00.978Z,11.55
2019-03-05T23:54:38.419Z,12.00
2019-03-05T23:57:15.945Z,11.73
2019-03-05T23:59:53.335Z,11.30
